Terminal Aerodrome Forecast
Issued by NWS Wilmington, OH

Current Version | Previous Version | Text Only | Print | Product List | Glossary Off
Versions: 1 2 3 4 5 6 7 8 9 10 11 12 13 14 15 16 17 18 19 20 21 22 23 24

000
FTUS41 KILN 281300 AAA
TAFDAY
TAF AMD
KDAY 281343Z 2814/2912 06004KT 6SM BR BKN012
     FM281500 09005KT P6SM SCT020
     FM281800 11006KT P6SM SCT040
     FM290900 14006KT P6SM SCT050 SCT080 BKN120=

USA.gov is the U.S. government's official web portal to all federal, state and local government web resources and services.